Time;durP1;ratioP1;P1;durP2;ratioP2;P2;SDS_P1;SDS_P2;PMS_P1;PMS_P2;Temp;Humidity;BMP_temperature;BMP_pressure;BME280_temperature;BME280_humidity;BME280_pressure;Samples;Min_cycle;Max_cycle;Signal;HPM_P1;HPM_P2
2023/04/20 00:01:11;;;;;;;2.55;0.70;;;;;;;;;;5281465;28;20025;-74
2023/04/20 00:03:42;;;;;;;3.88;0.72;;;;;;;;;;5281172;28;20024;-74
2023/04/20 00:06:14;;;;;;;4.03;0.70;;;;;;;;;;5280965;28;20142;-74
2023/04/20 00:08:45;;;;;;;2.25;0.63;;;;;;;;;;5280853;28;20059;-74
2023/04/20 00:11:16;;;;;;;3.98;0.70;;;;;;;;;;5280647;28;20037;-73
2023/04/20 00:13:47;;;;;;;3.08;0.70;;;;;;;;;;5281009;28;20016;-74
2023/04/20 00:16:19;;;;;;;1.77;0.60;;;;;;;;;;5281371;28;20020;-74
2023/04/20 00:18:50;;;;;;;1.90;0.60;;;;;;;;;;5280084;28;20027;-73
2023/04/20 00:21:23;;;;;;;2.08;0.65;;;;;;;;;;5281344;28;20020;-73
2023/04/20 00:23:54;;;;;;;2.10;0.70;;;;;;;;;;5282205;28;20474;-73
2023/04/20 00:26:25;;;;;;;3.25;0.60;;;;;;;;;;5284661;28;20032;-74
2023/04/20 00:28:56;;;;;;;3.35;0.60;;;;;;;;;;5284654;28;20032;-73
2023/04/20 00:31:27;;;;;;;3.00;0.63;;;;;;;;;;5284989;28;20041;-73
2023/04/20 00:33:58;;;;;;;1.74;0.70;;;;;;;;;;5283710;28;20054;-74
2023/04/20 00:36:30;;;;;;;3.17;0.70;;;;;;;;;;5284412;28;20020;-74
2023/04/20 00:39:02;;;;;;;2.40;0.60;;;;;;;;;;5284437;28;20012;-74
2023/04/20 00:41:33;;;;;;;3.20;0.60;;;;;;;;;;5284110;28;20508;-74
2023/04/20 00:44:06;;;;;;;2.64;0.70;;;;;;;;;;5284466;28;20021;-74
2023/04/20 00:46:38;;;;;;;3.83;0.73;;;;;;;;;;5283294;28;20033;-74
2023/04/20 00:49:09;;;;;;;4.68;0.70;;;;;;;;;;5284778;28;20374;-74
2023/04/20 00:51:41;;;;;;;2.72;0.82;;;;;;;;;;5283924;28;20063;-74
2023/04/20 00:54:12;;;;;;;4.00;0.70;;;;;;;;;;5283690;28;20016;-73
2023/04/20 00:56:44;;;;;;;2.55;0.60;;;;;;;;;;5284090;28;20527;-73
2023/04/20 00:59:15;;;;;;;3.28;0.60;;;;;;;;;;5284512;28;20021;-74
2023/04/20 01:01:46;;;;;;;2.33;0.50;;;;;;;;;;5283195;28;20028;-74
2023/04/20 01:04:17;;;;;;;2.03;0.77;;;;;;;;;;5284523;28;20027;-74
2023/04/20 01:06:49;;;;;;;1.88;0.60;;;;;;;;;;5283729;28;20039;-74
2023/04/20 01:09:20;;;;;;;2.55;0.52;;;;;;;;;;5283403;28;20016;-74
2023/04/20 01:11:51;;;;;;;4.88;1.00;;;;;;;;;;5283486;28;20147;-74
2023/04/20 01:14:22;;;;;;;4.20;0.57;;;;;;;;;;5283509;28;20039;-72
2023/04/20 01:16:54;;;;;;;2.33;0.50;;;;;;;;;;5283765;28;20032;-73
2023/04/20 01:19:25;;;;;;;1.50;0.52;;;;;;;;;;5284184;28;20031;-73
2023/04/20 01:21:56;;;;;;;1.83;0.55;;;;;;;;;;5282675;28;20036;-73
2023/04/20 01:24:28;;;;;;;2.22;0.50;;;;;;;;;;5283751;28;20053;-73
2023/04/20 01:27:00;;;;;;;1.58;0.43;;;;;;;;;;5283482;28;20479;-73
2023/04/20 01:29:32;;;;;;;2.85;0.43;;;;;;;;;;5282850;28;20484;-73
2023/04/20 01:32:04;;;;;;;1.70;0.60;;;;;;;;;;5283459;28;20032;-75
2023/04/20 01:34:35;;;;;;;2.00;0.50;;;;;;;;;;5282928;28;20101;-75
2023/04/20 01:37:07;;;;;;;2.78;0.52;;;;;;;;;;5282626;28;20482;-74
2023/04/20 01:39:38;;;;;;;2.05;0.50;;;;;;;;;;5283276;28;20025;-76
2023/04/20 01:42:10;;;;;;;1.77;0.60;;;;;;;;;;5283841;28;20016;-74
2023/04/20 01:44:41;;;;;;;3.50;0.52;;;;;;;;;;5282218;28;20024;-75
2023/04/20 01:47:12;;;;;;;1.63;0.50;;;;;;;;;;5283465;28;20024;-74
2023/04/20 01:49:43;;;;;;;1.58;0.55;;;;;;;;;;5282136;28;20039;-74
2023/04/20 01:52:15;;;;;;;1.88;0.60;;;;;;;;;;5283400;28;20029;-74
2023/04/20 01:54:46;;;;;;;1.40;0.50;;;;;;;;;;5282755;28;20070;-74
2023/04/20 01:57:17;;;;;;;1.36;0.50;;;;;;;;;;5282393;28;20021;-74
2023/04/20 01:59:48;;;;;;;1.68;0.54;;;;;;;;;;5282611;28;20016;-75
2023/04/20 02:02:20;;;;;;;1.90;0.50;;;;;;;;;;5283392;28;20025;-74
2023/04/20 02:04:52;;;;;;;2.13;0.65;;;;;;;;;;5281858;28;20021;-75
2023/04/20 02:07:23;;;;;;;3.05;0.63;;;;;;;;;;5283185;28;20119;-74
2023/04/20 02:09:54;;;;;;;3.08;0.47;;;;;;;;;;5282402;28;20025;-75
2023/04/20 02:12:25;;;;;;;3.30;0.50;;;;;;;;;;5282420;28;20040;-75
2023/04/20 02:14:57;;;;;;;2.97;0.50;;;;;;;;;;5282381;28;20025;-74
2023/04/20 02:17:28;;;;;;;2.50;0.68;;;;;;;;;;5282689;28;20103;-75
2023/04/20 02:19:59;;;;;;;1.65;0.50;;;;;;;;;;5281310;28;20486;-74
2023/04/20 02:22:33;;;;;;;2.15;0.60;;;;;;;;;;5282431;28;20092;-75
2023/04/20 02:25:05;;;;;;;1.30;0.50;;;;;;;;;;5281548;28;20052;-74
2023/04/20 02:27:36;;;;;;;1.83;0.50;;;;;;;;;;5282695;28;20074;-74
2023/04/20 02:30:09;;;;;;;3.17;0.60;;;;;;;;;;5282309;28;20025;-74
2023/04/20 02:32:40;;;;;;;2.25;0.60;;;;;;;;;;5281061;28;20020;-74
2023/04/20 02:35:11;;;;;;;3.58;0.70;;;;;;;;;;5282514;28;20013;-74
2023/04/20 02:37:43;;;;;;;2.75;0.68;;;;;;;;;;5282049;28;20013;-74
2023/04/20 02:40:14;;;;;;;3.40;0.60;;;;;;;;;;5282092;28;20008;-74
2023/04/20 02:42:45;;;;;;;2.03;0.63;;;;;;;;;;5281795;28;20028;-74
2023/04/20 02:45:17;;;;;;;1.50;0.47;;;;;;;;;;5282257;28;20066;-74
2023/04/20 02:47:48;;;;;;;1.88;0.60;;;;;;;;;;5280415;28;20534;-74
2023/04/20 02:50:19;;;;;;;1.88;0.68;;;;;;;;;;5282404;28;20055;-74
2023/04/20 02:52:50;;;;;;;2.65;0.77;;;;;;;;;;5281015;28;20013;-74
2023/04/20 02:55:22;;;;;;;1.92;0.70;;;;;;;;;;5282358;28;20375;-74
2023/04/20 02:57:53;;;;;;;2.45;0.85;;;;;;;;;;5281640;28;20095;-74
2023/04/20 03:00:24;;;;;;;2.47;0.60;;;;;;;;;;5281808;28;20034;-74
2023/04/20 03:02:55;;;;;;;2.50;0.80;;;;;;;;;;5281736;28;20055;-74
2023/04/20 03:05:26;;;;;;;2.04;0.70;;;;;;;;;;5282248;28;20021;-74
2023/04/20 03:07:57;;;;;;;1.73;0.60;;;;;;;;;;5281158;28;20021;-74
2023/04/20 03:10:29;;;;;;;4.25;0.68;;;;;;;;;;5281859;28;20368;-74
2023/04/20 03:13:01;;;;;;;1.80;0.60;;;;;;;;;;5281736;28;20024;-74
2023/04/20 03:15:32;;;;;;;2.38;0.70;;;;;;;;;;5281181;28;20013;-75
2023/04/20 03:18:03;;;;;;;3.15;0.60;;;;;;;;;;5281741;28;20008;-76
2023/04/20 03:20:34;;;;;;;2.50;0.80;;;;;;;;;;5281750;28;20028;-75
2023/04/20 03:23:05;;;;;;;1.10;0.60;;;;;;;;;;5280672;28;20017;-73
2023/04/20 03:25:37;;;;;;;7.05;0.70;;;;;;;;;;5281334;28;20066;-73
2023/04/20 03:28:08;;;;;;;1.80;0.60;;;;;;;;;;5281095;28;20352;-75
2023/04/20 03:30:39;;;;;;;2.40;0.70;;;;;;;;;;5281201;28;20043;-73
2023/04/20 03:33:11;;;;;;;3.25;0.80;;;;;;;;;;5281741;28;20402;-73
2023/04/20 03:35:42;;;;;;;2.58;0.80;;;;;;;;;;5280769;28;20024;-74
2023/04/20 03:38:13;;;;;;;2.35;0.70;;;;;;;;;;5281941;28;20029;-73
2023/04/20 03:40:45;;;;;;;2.55;0.80;;;;;;;;;;5281255;28;20020;-73
2023/04/20 03:43:16;;;;;;;1.88;0.85;;;;;;;;;;5280941;28;20025;-73
2023/04/20 03:45:48;;;;;;;2.85;0.73;;;;;;;;;;5281228;28;20360;-73
2023/04/20 03:48:19;;;;;;;2.45;0.80;;;;;;;;;;5281554;28;20024;-74
2023/04/20 03:50:50;;;;;;;2.85;0.60;;;;;;;;;;5280416;28;20367;-73
2023/04/20 03:53:21;;;;;;;2.35;0.60;;;;;;;;;;5281567;28;20020;-74
2023/04/20 03:55:53;;;;;;;3.83;0.75;;;;;;;;;;5280983;28;20059;-74
2023/04/20 03:58:24;;;;;;;2.55;1.00;;;;;;;;;;5281738;28;20021;-74
2023/04/20 04:01:02;;;;;;;3.17;0.70;;;;;;;;;;5285116;28;20024;-73
2023/04/20 04:03:33;;;;;;;1.98;0.80;;;;;;;;;;5284579;28;20344;-73
2023/04/20 04:06:05;;;;;;;2.70;0.70;;;;;;;;;;5285064;28;20104;-73
2023/04/20 04:08:37;;;;;;;2.60;0.70;;;;;;;;;;5285036;28;20021;-73
2023/04/20 04:11:08;;;;;;;2.88;0.70;;;;;;;;;;5284413;28;20021;-74
2023/04/20 04:13:39;;;;;;;2.75;0.65;;;;;;;;;;5284901;28;20036;-75
2023/04/20 04:16:10;;;;;;;3.67;1.08;;;;;;;;;;5285190;28;20112;-74
2023/04/20 04:18:42;;;;;;;2.78;1.00;;;;;;;;;;5283863;28;20480;-74
2023/04/20 04:21:13;;;;;;;2.80;0.73;;;;;;;;;;5285050;28;20027;-74
2023/04/20 04:23:45;;;;;;;3.33;1.00;;;;;;;;;;5284244;28;20099;-74
2023/04/20 04:26:17;;;;;;;2.90;0.90;;;;;;;;;;5284451;28;20483;-72
2023/04/20 04:28:49;;;;;;;2.75;0.80;;;;;;;;;;5284171;28;20074;-74
2023/04/20 04:31:21;;;;;;;2.63;0.75;;;;;;;;;;5283939;28;20103;-73
2023/04/20 04:33:52;;;;;;;2.00;0.93;;;;;;;;;;5284356;28;20096;-73
2023/04/20 04:36:25;;;;;;;2.88;1.00;;;;;;;;;;5284637;28;20021;-73
2023/04/20 04:38:56;;;;;;;2.20;0.80;;;;;;;;;;5283034;28;20045;-73
2023/04/20 04:41:28;;;;;;;3.70;1.02;;;;;;;;;;5284359;28;20062;-74
2023/04/20 04:43:59;;;;;;;4.45;1.10;;;;;;;;;;5283856;28;20019;-73
2023/04/20 04:46:31;;;;;;;1.92;0.73;;;;;;;;;;5283255;28;20017;-74
2023/04/20 04:49:03;;;;;;;2.33;0.80;;;;;;;;;;5284409;28;20028;-74
2023/04/20 04:51:34;;;;;;;2.40;1.00;;;;;;;;;;5284123;28;20112;-74
2023/04/20 04:54:05;;;;;;;2.53;0.80;;;;;;;;;;5283085;28;20020;-73
2023/04/20 04:56:36;;;;;;;3.10;0.90;;;;;;;;;;5283805;28;20075;-73
2023/04/20 04:59:07;;;;;;;3.15;1.00;;;;;;;;;;5284185;28;20127;-74
2023/04/20 05:01:39;;;;;;;3.53;0.82;;;;;;;;;;5283152;28;20020;-74
2023/04/20 05:04:10;;;;;;;2.88;0.90;;;;;;;;;;5284510;28;20023;-74
2023/04/20 05:06:41;;;;;;;11.05;1.35;;;;;;;;;;5282697;28;20028;-74
2023/04/20 05:09:12;;;;;;;4.68;1.10;;;;;;;;;;5283707;28;20016;-74
2023/04/20 05:11:43;;;;;;;4.08;0.90;;;;;;;;;;5282358;28;20501;-74
2023/04/20 05:14:14;;;;;;;2.80;1.10;;;;;;;;;;5283283;28;20537;-74
2023/04/20 05:16:46;;;;;;;3.30;0.90;;;;;;;;;;5283382;28;20021;-74
2023/04/20 05:19:17;;;;;;;3.53;1.40;;;;;;;;;;5284033;28;20352;-74
2023/04/20 05:21:48;;;;;;;3.42;1.05;;;;;;;;;;5282367;28;20923;-73
2023/04/20 05:24:20;;;;;;;3.35;0.98;;;;;;;;;;5283601;28;20522;-73
2023/04/20 05:26:51;;;;;;;4.55;1.02;;;;;;;;;;5283313;28;20476;-73
2023/04/20 05:29:22;;;;;;;3.30;1.30;;;;;;;;;;5283055;28;20117;-73
2023/04/20 05:31:53;;;;;;;3.13;1.30;;;;;;;;;;5283176;28;20025;-73
2023/04/20 05:34:24;;;;;;;4.53;2.00;;;;;;;;;;5283651;28;20020;-73
2023/04/20 05:36:57;;;;;;;4.03;1.55;;;;;;;;;;5282200;28;20099;-73
2023/04/20 05:39:28;;;;;;;4.25;1.30;;;;;;;;;;5283690;28;20450;-73
2023/04/20 05:41:59;;;;;;;3.97;1.40;;;;;;;;;;5281972;28;20094;-72
2023/04/20 05:44:32;;;;;;;7.88;1.58;;;;;;;;;;5282989;28;20017;-73
2023/04/20 05:47:05;;;;;;;5.40;1.30;;;;;;;;;;5283122;28;20353;-75
2023/04/20 05:49:36;;;;;;;5.60;1.40;;;;;;;;;;5282344;28;20073;-74
2023/04/20 05:52:07;;;;;;;3.95;1.27;;;;;;;;;;5282897;28;20032;-72
2023/04/20 05:54:38;;;;;;;3.72;1.13;;;;;;;;;;5282575;28;20142;-75
2023/04/20 05:57:10;;;;;;;4.20;1.08;;;;;;;;;;5282380;28;20031;-75
2023/04/20 05:59:41;;;;;;;2.90;1.58;;;;;;;;;;5282484;28;20012;-73
2023/04/20 06:02:13;;;;;;;3.33;1.15;;;;;;;;;;5282973;28;20048;-74
2023/04/20 06:04:44;;;;;;;3.28;1.40;;;;;;;;;;5281585;28;20388;-75
2023/04/20 06:07:15;;;;;;;3.72;1.67;;;;;;;;;;5282827;28;20032;-73
2023/04/20 06:09:46;;;;;;;4.47;1.20;;;;;;;;;;5281279;28;20052;-75
2023/04/20 06:12:18;;;;;;;3.63;1.13;;;;;;;;;;5282554;28;20032;-75
2023/04/20 06:14:49;;;;;;;4.40;1.50;;;;;;;;;;5282256;28;20016;-75
2023/04/20 06:17:20;;;;;;;2.82;1.64;;;;;;;;;;5282132;28;20025;-75
2023/04/20 06:19:51;;;;;;;4.75;1.55;;;;;;;;;;5282096;28;20013;-75
2023/04/20 06:22:22;;;;;;;4.82;1.60;;;;;;;;;;5282518;28;20020;-75
2023/04/20 06:24:53;;;;;;;3.83;1.60;;;;;;;;;;5281396;28;20040;-74
2023/04/20 06:27:25;;;;;;;3.35;1.38;;;;;;;;;;5282769;28;20127;-75
2023/04/20 06:29:56;;;;;;;3.28;1.77;;;;;;;;;;5281791;28;20022;-73
2023/04/20 06:32:27;;;;;;;6.07;2.00;;;;;;;;;;5281714;28;20482;-74
2023/04/20 06:34:58;;;;;;;6.25;1.80;;;;;;;;;;5281875;28;20016;-73
2023/04/20 06:37:29;;;;;;;4.82;2.40;;;;;;;;;;5281396;28;20024;-73
2023/04/20 06:40:02;;;;;;;5.43;2.00;;;;;;;;;;5281131;28;20024;-73
2023/04/20 06:42:34;;;;;;;6.75;1.58;;;;;;;;;;5281672;28;20074;-71
2023/04/20 06:45:06;;;;;;;6.40;2.38;;;;;;;;;;5280710;28;20032;-73
2023/04/20 06:47:37;;;;;;;4.15;1.60;;;;;;;;;;5280990;28;20017;-72
2023/04/20 06:50:08;;;;;;;5.53;1.83;;;;;;;;;;5281836;28;20024;-73
2023/04/20 06:52:39;;;;;;;8.10;2.30;;;;;;;;;;5280524;28;20029;-72
2023/04/20 06:55:12;;;;;;;4.32;1.98;;;;;;;;;;5281641;28;20020;-74
2023/04/20 06:57:43;;;;;;;5.15;2.00;;;;;;;;;;5281035;28;20451;-74
2023/04/20 07:00:14;;;;;;;8.40;1.77;;;;;;;;;;5280947;28;20096;-74
2023/04/20 07:02:47;;;;;;;5.97;2.03;;;;;;;;;;5280853;28;20079;-75
2023/04/20 07:05:18;;;;;;;6.13;2.13;;;;;;;;;;5281170;28;20008;-76
2023/04/20 07:07:50;;;;;;;5.55;2.55;;;;;;;;;;5280017;28;20013;-76
2023/04/20 07:10:21;;;;;;;6.63;2.28;;;;;;;;;;5282354;28;20052;-76
2023/04/20 07:12:52;;;;;;;4.55;2.17;;;;;;;;;;5281466;28;20020;-75
2023/04/20 07:15:23;;;;;;;3.90;2.30;;;;;;;;;;5281377;28;20020;-77
2023/04/20 07:17:54;;;;;;;6.13;2.35;;;;;;;;;;5281362;28;20088;-75
2023/04/20 07:20:26;;;;;;;7.58;2.04;;;;;;;;;;5280995;28;20112;-77
2023/04/20 07:22:57;;;;;;;3.86;1.66;;;;;;;;;;5281154;28;20032;-76
2023/04/20 07:25:30;;;;;;;4.74;1.78;;;;;;;;;;5281649;28;20051;-75
2023/04/20 07:28:01;;;;;;;3.05;1.58;;;;;;;;;;5281223;28;20455;-76
2023/04/20 07:30:32;;;;;;;4.32;1.90;;;;;;;;;;5281093;28;20032;-75
2023/04/20 07:33:03;;;;;;;5.13;1.70;;;;;;;;;;5281488;28;20475;-75
2023/04/20 07:35:35;;;;;;;3.08;1.63;;;;;;;;;;5284895;28;20429;-76
2023/04/20 07:38:06;;;;;;;4.15;1.75;;;;;;;;;;5285400;28;20063;-73
2023/04/20 07:40:37;;;;;;;5.80;1.83;;;;;;;;;;5285259;28;20016;-73
2023/04/20 07:43:08;;;;;;;6.07;1.95;;;;;;;;;;5285093;28;20057;-73
2023/04/20 07:45:40;;;;;;;4.65;1.80;;;;;;;;;;5284877;28;20103;-74
2023/04/20 07:48:11;;;;;;;4.03;1.67;;;;;;;;;;5284665;28;20029;-74
2023/04/20 07:50:43;;;;;;;4.32;1.48;;;;;;;;;;5284725;28;20301;-75
2023/04/20 07:53:14;;;;;;;4.63;1.40;;;;;;;;;;5285392;28;20471;-76
2023/04/20 07:55:45;;;;;;;5.57;1.70;;;;;;;;;;5284025;28;20024;-75
2023/04/20 07:58:16;;;;;;;4.28;1.63;;;;;;;;;;5285058;28;20058;-74
2023/04/20 08:00:48;;;;;;;3.97;2.08;;;;;;;;;;5284805;28;20012;-74
2023/04/20 08:03:19;;;;;;;4.25;1.45;;;;;;;;;;5284360;28;20015;-72
2023/04/20 08:05:50;;;;;;;4.32;1.70;;;;;;;;;;5284215;28;20104;-72
2023/04/20 08:08:21;;;;;;;4.18;1.33;;;;;;;;;;5284647;28;20107;-75
2023/04/20 08:10:55;;;;;;;4.05;1.30;;;;;;;;;;5283381;28;20479;-74
2023/04/20 08:13:27;;;;;;;3.53;1.17;;;;;;;;;;5284879;28;20020;-73
2023/04/20 08:15:58;;;;;;;6.72;1.90;;;;;;;;;;5284458;28;20029;-74
2023/04/20 08:18:30;;;;;;;5.10;1.50;;;;;;;;;;5280700;28;20102;-74
2023/04/20 08:21:01;;;;;;;3.08;1.30;;;;;;;;;;5283784;28;20408;-74
2023/04/20 08:23:32;;;;;;;4.68;1.15;;;;;;;;;;5283003;28;20352;-75
2023/04/20 08:26:03;;;;;;;4.48;1.44;;;;;;;;;;5283803;28;20094;-74
2023/04/20 08:28:34;;;;;;;4.57;1.45;;;;;;;;;;5284349;28;20013;-75
2023/04/20 08:31:06;;;;;;;6.82;1.40;;;;;;;;;;5283340;28;20033;-76
2023/04/20 08:33:37;;;;;;;3.40;1.30;;;;;;;;;;5283206;28;20028;-75
2023/04/20 08:36:08;;;;;;;2.80;1.10;;;;;;;;;;5283970;28;20020;-73
2023/04/20 08:38:39;;;;;;;3.45;1.02;;;;;;;;;;5282879;28;20066;-74
2023/04/20 08:41:14;;;;;;;4.72;1.05;;;;;;;;;;5284250;28;20035;-75
2023/04/20 08:43:47;;;;;;;3.58;1.05;;;;;;;;;;5277848;28;20025;-73
2023/04/20 08:46:18;;;;;;;5.35;1.38;;;;;;;;;;5282112;28;20021;-73
2023/04/20 08:48:51;;;;;;;3.45;1.25;;;;;;;;;;5283199;28;20032;-74
2023/04/20 08:51:23;;;;;;;2.33;1.00;;;;;;;;;;5283790;28;20494;-75
2023/04/20 08:53:55;;;;;;;5.10;1.27;;;;;;;;;;5282757;28;20017;-75
2023/04/20 08:56:32;;;;;;;2.38;1.08;;;;;;;;;;5283721;28;20082;-75
2023/04/20 08:59:04;;;;;;;5.05;1.02;;;;;;;;;;5282601;28;20025;-73
2023/04/20 09:01:36;;;;;;;4.50;1.15;;;;;;;;;;5283183;28;20039;-74
2023/04/20 09:04:14;;;;;;;2.90;1.00;;;;;;;;;;5283564;28;20586;-73
2023/04/20 09:06:47;;;;;;;8.57;1.33;;;;;;;;;;5282633;28;20027;-74
2023/04/20 09:09:20;;;;;;;4.32;1.38;;;;;;;;;;5283758;28;20467;-74
2023/04/20 09:12:03;;;;;;;4.50;0.93;;;;;;;;;;5282782;28;20052;-75
2023/04/20 09:14:45;;;;;;;3.63;0.90;;;;;;;;;;5282393;28;20021;-75
2023/04/20 09:17:16;;;;;;;3.20;1.13;;;;;;;;;;5283080;28;20028;-74
2023/04/20 09:19:51;;;;;;;2.90;1.02;;;;;;;;;;5282375;28;20130;-75
2023/04/20 09:22:30;;;;;;;5.35;0.98;;;;;;;;;;5283207;28;20475;-75
2023/04/20 09:25:13;;;;;;;2.47;1.00;;;;;;;;;;5281416;28;20076;-76
2023/04/20 09:27:54;;;;;;;2.97;0.80;;;;;;;;;;5281435;28;20025;-76
2023/04/20 09:30:35;;;;;;;2.95;0.75;;;;;;;;;;5282951;28;20126;-75
2023/04/20 09:33:07;;;;;;;3.15;0.80;;;;;;;;;;5283071;28;20538;-76
2023/04/20 09:35:40;;;;;;;5.13;0.85;;;;;;;;;;5282177;28;20092;-73
2023/04/20 09:38:14;;;;;;;3.08;0.90;;;;;;;;;;5283552;28;20024;-74
2023/04/20 09:40:45;;;;;;;2.58;0.80;;;;;;;;;;5281946;28;20016;-76
2023/04/20 09:43:22;;;;;;;2.00;0.80;;;;;;;;;;5283464;28;20565;-75
2023/04/20 09:45:53;;;;;;;2.80;1.23;;;;;;;;;;5282566;28;20356;-75
2023/04/20 09:48:25;;;;;;;1.88;0.90;;;;;;;;;;5282535;28;20021;-75
2023/04/20 09:50:56;;;;;;;6.95;1.30;;;;;;;;;;5282807;28;20044;-74
2023/04/20 09:53:29;;;;;;;3.15;0.95;;;;;;;;;;5283373;28;20047;-74
2023/04/20 09:56:01;;;;;;;2.88;1.10;;;;;;;;;;5282202;28;20027;-75
2023/04/20 09:58:33;;;;;;;2.78;0.90;;;;;;;;;;5283393;28;20033;-75
2023/04/20 10:01:08;;;;;;;3.35;0.73;;;;;;;;;;5282650;28;20021;-74
2023/04/20 10:03:42;;;;;;;2.45;0.90;;;;;;;;;;5281733;28;20052;-75
2023/04/20 10:06:17;;;;;;;2.15;0.80;;;;;;;;;;5282382;28;20028;-74
2023/04/20 10:08:50;;;;;;;6.22;1.17;;;;;;;;;;5280841;28;20578;-75
2023/04/20 10:11:25;;;;;;;2.92;0.75;;;;;;;;;;5282486;28;20024;-74
2023/04/20 10:13:57;;;;;;;2.67;0.80;;;;;;;;;;5282379;28;20016;-74
2023/04/20 10:16:28;;;;;;;5.22;0.82;;;;;;;;;;5281851;28;20035;-75
2023/04/20 10:19:01;;;;;;;1.92;0.90;;;;;;;;;;5282066;28;20024;-74
2023/04/20 10:21:43;;;;;;;5.28;1.10;;;;;;;;;;5281822;28;20021;-76
2023/04/20 10:24:14;;;;;;;1.73;0.88;;;;;;;;;;5281635;28;20048;-76
2023/04/20 10:26:46;;;;;;;2.60;0.95;;;;;;;;;;5281785;28;20024;-74
2023/04/20 10:29:24;;;;;;;3.33;1.02;;;;;;;;;;5282025;28;20028;-73
2023/04/20 10:31:55;;;;;;;3.78;1.20;;;;;;;;;;5281347;28;20472;-74
2023/04/20 10:34:30;;;;;;;2.05;1.05;;;;;;;;;;5282087;28;20024;-74
2023/04/20 10:37:07;;;;;;;4.25;2.17;;;;;;;;;;5280976;28;20054;-74
2023/04/20 10:39:47;;;;;;;4.28;1.23;;;;;;;;;;5281318;28;20021;-74
2023/04/20 10:42:18;;;;;;;4.05;1.40;;;;;;;;;;5281727;28;20036;-75
2023/04/20 10:44:50;;;;;;;3.54;1.20;;;;;;;;;;5280342;28;20032;-75
2023/04/20 10:47:28;;;;;;;2.60;1.00;;;;;;;;;;5281905;28;20016;-75
2023/04/20 10:50:06;;;;;;;3.20;1.37;;;;;;;;;;5281393;28;20052;-76
2023/04/20 10:52:39;;;;;;;3.25;1.20;;;;;;;;;;5280798;28;20055;-76
2023/04/20 10:55:19;;;;;;;3.13;0.93;;;;;;;;;;5282166;28;20020;-75
2023/04/20 10:57:50;;;;;;;2.30;0.93;;;;;;;;;;5281440;28;20495;-75
2023/04/20 11:00:26;;;;;;;2.22;1.02;;;;;;;;;;5281045;28;20023;-74
2023/04/20 11:02:57;;;;;;;3.55;1.55;;;;;;;;;;5280983;28;20020;-74
2023/04/20 11:05:28;;;;;;;3.20;1.20;;;;;;;;;;5280807;28;20028;-75
2023/04/20 11:08:02;;;;;;;3.25;1.30;;;;;;;;;;5280370;28;20471;-76
2023/04/20 11:10:37;;;;;;;3.95;1.27;;;;;;;;;;5281486;28;20024;-75
2023/04/20 11:13:18;;;;;;;3.35;1.25;;;;;;;;;;5280885;28;20066;-77
2023/04/20 11:15:50;;;;;;;3.28;1.20;;;;;;;;;;5280630;28;20028;-75
2023/04/20 11:18:21;;;;;;;2.75;1.50;;;;;;;;;;5281748;28;20024;-76
2023/04/20 11:20:53;;;;;;;6.78;1.80;;;;;;;;;;5279950;28;20017;-76
2023/04/20 11:23:35;;;;;;;2.67;1.73;;;;;;;;;;5281817;28;20028;-77
2023/04/20 11:26:06;;;;;;;6.97;1.85;;;;;;;;;;5281419;28;20055;-73
2023/04/20 11:28:37;;;;;;;3.70;1.50;;;;;;;;;;5280409;28;20483;-77
2023/04/20 11:31:15;;;;;;;3.28;1.73;;;;;;;;;;5280898;28;20033;-76
2023/04/20 11:33:46;;;;;;;3.28;1.33;;;;;;;;;;5280225;28;20489;-75
2023/04/20 11:36:21;;;;;;;2.85;1.50;;;;;;;;;;5281311;28;20095;-76
2023/04/20 11:38:52;;;;;;;3.25;1.73;;;;;;;;;;5280613;28;20100;-76
2023/04/20 11:41:24;;;;;;;3.90;1.85;;;;;;;;;;5280597;28;20115;-76
2023/04/20 11:43:55;;;;;;;2.75;1.50;;;;;;;;;;5280798;28;20503;-76
2023/04/20 11:46:26;;;;;;;4.30;1.70;;;;;;;;;;5281119;28;20117;-76
2023/04/20 11:48:59;;;;;;;2.53;1.67;;;;;;;;;;5280455;28;20013;-76
2023/04/20 11:51:30;;;;;;;2.60;1.30;;;;;;;;;;5280818;28;20154;-75
2023/04/20 11:54:02;;;;;;;3.03;1.48;;;;;;;;;;5280825;28;20029;-75
2023/04/20 11:56:33;;;;;;;3.65;1.80;;;;;;;;;;5280383;28;20078;-76
2023/04/20 11:59:05;;;;;;;4.80;2.08;;;;;;;;;;5280946;28;20116;-75
2023/04/20 12:01:36;;;;;;;2.33;1.40;;;;;;;;;;5280047;28;20056;-75
2023/04/20 12:04:08;;;;;;;4.90;2.05;;;;;;;;;;5280789;28;20024;-75
2023/04/20 12:06:40;;;;;;;7.05;2.08;;;;;;;;;;5280906;28;20012;-74
2023/04/20 12:09:12;;;;;;;5.07;2.30;;;;;;;;;;5280626;28;20086;-75
2023/04/20 12:11:43;;;;;;;5.38;1.98;;;;;;;;;;5280775;28;20379;-75
2023/04/20 12:14:14;;;;;;;3.08;2.55;;;;;;;;;;5281091;28;20023;-75
2023/04/20 12:16:45;;;;;;;4.30;2.20;;;;;;;;;;5279905;28;20028;-75
2023/04/20 12:19:17;;;;;;;3.40;3.10;;;;;;;;;;5281929;28;20084;-75
2023/04/20 12:21:48;;;;;;;4.63;2.80;;;;;;;;;;5284148;28;20048;-75
2023/04/20 12:24:19;;;;;;;4.18;3.00;;;;;;;;;;5284052;28;20455;-76
2023/04/20 12:26:50;;;;;;;5.25;3.85;;;;;;;;;;5284302;28;20028;-75
2023/04/20 12:29:21;;;;;;;4.47;3.40;;;;;;;;;;5285254;28;20078;-76
2023/04/20 12:31:52;;;;;;;5.82;3.38;;;;;;;;;;5282544;28;20045;-74
2023/04/20 12:34:24;;;;;;;5.60;3.70;;;;;;;;;;5284995;28;20021;-75
2023/04/20 12:36:55;;;;;;;5.72;3.45;;;;;;;;;;5283446;28;20032;-75
2023/04/20 12:39:26;;;;;;;3.47;2.58;;;;;;;;;;5284625;28;20025;-76
2023/04/20 12:41:57;;;;;;;3.50;2.35;;;;;;;;;;5284346;28;20357;-75
2023/04/20 12:44:29;;;;;;;3.05;2.65;;;;;;;;;;5283830;28;20028;-75
2023/04/20 12:47:00;;;;;;;2.53;2.03;;;;;;;;;;5284028;28;20020;-76
2023/04/20 12:49:31;;;;;;;2.80;2.15;;;;;;;;;;5283817;28;20025;-76
2023/04/20 12:52:03;;;;;;;4.15;2.08;;;;;;;;;;5283412;28;20290;-75
2023/04/20 12:54:34;;;;;;;3.42;1.90;;;;;;;;;;5284008;28;20266;-74
2023/04/20 12:57:05;;;;;;;2.85;1.80;;;;;;;;;;5283802;28;20565;-73
2023/04/20 12:59:36;;;;;;;2.90;2.28;;;;;;;;;;5283045;28;20016;-75
2023/04/20 13:02:07;;;;;;;2.85;2.28;;;;;;;;;;5283841;28;20017;-77
2023/04/20 13:04:39;;;;;;;5.03;2.53;;;;;;;;;;5282854;28;20017;-77
2023/04/20 13:07:11;;;;;;;4.10;2.60;;;;;;;;;;5284153;28;20024;-76
2023/04/20 13:09:42;;;;;;;3.22;2.92;;;;;;;;;;5283551;28;20008;-76
2023/04/20 13:12:13;;;;;;;3.63;2.85;;;;;;;;;;5283403;28;20031;-76
2023/04/20 13:14:45;;;;;;;3.05;2.35;;;;;;;;;;5283361;28;20043;-76
2023/04/20 13:17:16;;;;;;;4.00;2.92;;;;;;;;;;5283867;28;20032;-76
2023/04/20 13:19:48;;;;;;;3.90;3.22;;;;;;;;;;5282502;28;20020;-77
2023/04/20 13:22:19;;;;;;;3.72;2.20;;;;;;;;;;5283949;28;20020;-76
2023/04/20 13:24:50;;;;;;;3.78;2.53;;;;;;;;;;5283088;28;20045;-75
2023/04/20 13:27:21;;;;;;;3.80;2.58;;;;;;;;;;5283029;28;20046;-76
2023/04/20 13:29:53;;;;;;;3.32;2.76;;;;;;;;;;5283291;28;20024;-77
2023/04/20 13:32:25;;;;;;;4.20;2.22;;;;;;;;;;5283068;28;20028;-76
2023/04/20 13:34:56;;;;;;;4.05;3.03;;;;;;;;;;5282400;28;20016;-77
2023/04/20 13:37:27;;;;;;;5.18;2.53;;;;;;;;;;5283512;28;20021;-75
2023/04/20 13:39:59;;;;;;;3.13;2.45;;;;;;;;;;5281677;28;20490;-77
2023/04/20 13:42:30;;;;;;;3.63;2.40;;;;;;;;;;5283023;28;20032;-75
2023/04/20 13:45:02;;;;;;;3.03;2.60;;;;;;;;;;5282807;28;20439;-74
2023/04/20 13:47:33;;;;;;;4.28;2.33;;;;;;;;;;5282314;28;20036;-75
2023/04/20 13:50:05;;;;;;;4.80;2.97;;;;;;;;;;5278011;28;20028;-76
2023/04/20 13:52:36;;;;;;;3.15;2.85;;;;;;;;;;5282299;28;20066;-73
2023/04/20 13:55:09;;;;;;;3.17;2.88;;;;;;;;;;5281383;28;20024;-74
2023/04/20 13:57:40;;;;;;;4.65;2.75;;;;;;;;;;5282333;28;20065;-74
2023/04/20 14:00:12;;;;;;;4.82;2.70;;;;;;;;;;5282397;28;20095;-74
2023/04/20 14:02:43;;;;;;;2.95;2.55;;;;;;;;;;5279981;28;20024;-75
2023/04/20 14:05:14;;;;;;;3.38;3.00;;;;;;;;;;5282325;28;20356;-76
2023/04/20 14:07:45;;;;;;;4.93;2.80;;;;;;;;;;5280919;28;20035;-76
2023/04/20 14:10:17;;;;;;;3.33;2.42;;;;;;;;;;5280759;28;20024;-78
2023/04/20 14:12:48;;;;;;;4.82;2.42;;;;;;;;;;5281639;28;20725;-75
2023/04/20 14:15:19;;;;;;;3.38;2.30;;;;;;;;;;5282086;28;20017;-75
2023/04/20 14:17:50;;;;;;;2.50;2.15;;;;;;;;;;5282138;28;20021;-76
2023/04/20 14:20:22;;;;;;;4.85;2.50;;;;;;;;;;5282623;28;20020;-75
2023/04/20 14:22:53;;;;;;;3.03;2.33;;;;;;;;;;5280997;28;20013;-74
2023/04/20 14:25:24;;;;;;;4.03;2.65;;;;;;;;;;5282290;28;20135;-77
2023/04/20 14:27:56;;;;;;;3.60;2.40;;;;;;;;;;5282113;28;20027;-77
2023/04/20 14:30:27;;;;;;;5.05;2.30;;;;;;;;;;5281653;28;20017;-77
2023/04/20 14:32:59;;;;;;;2.28;1.88;;;;;;;;;;5281748;28;20094;-76
2023/04/20 14:35:30;;;;;;;3.50;1.80;;;;;;;;;;5282071;28;20104;-77
2023/04/20 14:38:01;;;;;;;4.57;2.20;;;;;;;;;;5281102;28;20039;-77
2023/04/20 14:40:32;;;;;;;3.13;1.90;;;;;;;;;;5282480;28;20274;-80
2023/04/20 14:43:03;;;;;;;2.22;2.00;;;;;;;;;;5281915;28;20052;-77
2023/04/20 14:45:35;;;;;;;2.78;2.55;;;;;;;;;;5281390;28;20024;-78
2023/04/20 14:48:06;;;;;;;2.53;2.00;;;;;;;;;;5281817;28;20387;-77
2023/04/20 14:50:37;;;;;;;2.38;1.92;;;;;;;;;;5280948;28;20017;-78
2023/04/20 14:53:08;;;;;;;1.80;1.27;;;;;;;;;;5282145;28;20055;-77
2023/04/20 14:55:39;;;;;;;2.50;1.85;;;;;;;;;;5281236;28;20021;-78
2023/04/20 14:58:11;;;;;;;3.75;1.88;;;;;;;;;;5281201;28;20016;-77
2023/04/20 15:00:42;;;;;;;2.72;2.13;;;;;;;;;;5281287;28;20017;-78
2023/04/20 15:03:14;;;;;;;2.22;1.70;;;;;;;;;;5281843;28;20536;-77
2023/04/20 15:05:45;;;;;;;2.28;1.38;;;;;;;;;;5280745;28;20407;-78
2023/04/20 15:08:16;;;;;;;2.80;1.75;;;;;;;;;;5281978;28;20058;-77
2023/04/20 15:10:49;;;;;;;9.05;2.30;;;;;;;;;;5281197;28;20017;-77